createdAt,value
2018-05-10T00:00:41.799Z,15.34
2018-05-10T00:02:18.931Z,15.37
2018-05-10T00:03:56.589Z,15.41
2018-05-10T00:05:34.539Z,15.35
2018-05-10T00:07:12.067Z,15.35
2018-05-10T00:08:49.509Z,15.38
2018-05-10T00:10:25.608Z,15.26
2018-05-10T00:12:05.115Z,15.23
2018-05-10T00:13:42.554Z,15.26
2018-05-10T00:15:18.423Z,15.28
2018-05-10T00:16:56.560Z,15.32
2018-05-10T00:18:35.018Z,15.29
2018-05-10T00:20:12.608Z,15.31
2018-05-10T00:21:49.649Z,15.27
2018-05-10T00:23:26.517Z,15.20
2018-05-10T00:25:03.949Z,15.15
2018-05-10T00:26:41.633Z,15.13
2018-05-10T00:28:21.558Z,15.19
2018-05-10T00:29:58.790Z,15.25
2018-05-10T00:31:37.854Z,15.26
2018-05-10T00:33:16.010Z,15.20
2018-05-10T00:34:53.838Z,15.16
2018-05-10T00:36:32.589Z,15.19
2018-05-10T00:38:10.337Z,15.12
2018-05-10T00:39:48.221Z,15.14
2018-05-10T00:41:27.858Z,15.13
2018-05-10T00:43:02.930Z,15.11
2018-05-10T00:44:41.536Z,15.10
2018-05-10T01:03:59.675Z,14.90
2018-05-10T01:05:37.745Z,14.85
2018-05-10T01:07:15.859Z,14.83
2018-05-10T01:08:53.432Z,14.78
2018-05-10T01:10:32.022Z,14.82
2018-05-10T01:12:08.824Z,14.86
2018-05-10T01:13:45.684Z,14.93
2018-05-10T01:15:23.940Z,14.90
2018-05-10T01:17:00.274Z,14.82
2018-05-10T01:18:37.755Z,14.83
2018-05-10T01:20:15.654Z,14.72
2018-05-10T01:21:54.582Z,14.75
2018-05-10T01:23:31.906Z,14.75
2018-05-10T01:25:09.142Z,14.76
2018-05-10T01:44:26.618Z,14.41
2018-05-10T01:46:04.822Z,14.38
2018-05-10T02:05:23.262Z,14.07
2018-05-10T02:07:01.153Z,14.09
2018-05-10T02:08:38.783Z,14.04
2018-05-10T02:10:17.736Z,14.06
2018-05-10T02:11:54.140Z,14.01
2018-05-10T02:13:30.660Z,13.98
2018-05-10T02:15:07.567Z,14.00
2018-05-10T02:16:45.744Z,13.97
2018-05-10T02:18:23.353Z,13.99
2018-05-10T02:20:02.703Z,13.94
2018-05-10T02:21:39.705Z,13.94
2018-05-10T02:23:18.084Z,13.90
2018-05-10T02:24:54.832Z,13.94
2018-05-10T02:26:32.772Z,13.86
2018-05-10T02:28:10.073Z,13.89
2018-05-10T02:29:47.438Z,13.88
2018-05-10T02:31:26.326Z,13.88
2018-05-10T02:33:03.262Z,13.80
2018-05-10T02:34:39.842Z,13.80
2018-05-10T02:36:18.433Z,13.74
2018-05-10T02:37:54.677Z,13.73
2018-05-10T02:39:33.764Z,13.71
2018-05-10T02:41:15.818Z,13.80
2018-05-10T02:42:56.304Z,13.80
2018-05-10T03:02:14.729Z,13.53
2018-05-10T03:03:52.397Z,13.47
2018-05-10T03:05:28.900Z,13.42
2018-05-10T03:07:07.216Z,13.42
2018-05-10T03:08:45.859Z,13.45
2018-05-10T03:10:25.496Z,13.50
2018-05-10T03:12:01.762Z,13.43
2018-05-10T03:13:39.578Z,13.43
2018-05-10T03:15:17.209Z,13.43
2018-05-10T03:16:54.245Z,13.43
2018-05-10T03:18:31.692Z,13.39
2018-05-10T03:20:09.517Z,13.43
2018-05-10T03:21:47.829Z,13.43
2018-05-10T03:23:27.408Z,13.39
2018-05-10T03:25:05.407Z,13.38
2018-05-10T03:26:41.712Z,13.39
2018-05-10T03:46:04.184Z,13.14
2018-05-10T03:47:41.159Z,13.16
2018-05-10T03:49:16.791Z,13.25
2018-05-10T03:50:54.906Z,13.23
2018-05-10T03:52:32.567Z,13.26
2018-05-10T03:54:10.336Z,13.25
2018-05-10T03:55:47.771Z,13.34
2018-05-10T03:57:24.478Z,13.38
2018-05-10T03:59:03.202Z,13.41
2018-05-10T04:00:42.928Z,13.34
2018-05-10T04:02:20.038Z,13.33
2018-05-10T04:04:29.147Z,13.29
2018-05-10T04:06:23.789Z,13.31
2018-05-10T04:08:16.424Z,13.28
2018-05-10T04:10:09.576Z,13.42
2018-05-10T04:11:46.935Z,13.44
2018-05-10T04:13:23.592Z,13.41
2018-05-10T04:15:00.845Z,13.48
2018-05-10T04:16:37.522Z,13.65
2018-05-10T04:18:16.163Z,13.92
2018-05-10T04:37:34.768Z,14.58
2018-05-10T04:39:12.792Z,14.67
2018-05-10T04:40:49.579Z,14.74
2018-05-10T04:42:26.733Z,14.86
2018-05-10T04:44:04.577Z,14.92
2018-05-10T04:45:43.026Z,15.11
2018-05-10T04:47:21.217Z,15.16
2018-05-10T04:48:58.869Z,15.16
2018-05-10T04:50:35.537Z,15.37
2018-05-10T04:52:11.744Z,15.45
2018-05-10T04:53:48.420Z,15.35
2018-05-10T04:55:25.812Z,15.34
2018-05-10T04:57:03.888Z,15.44
2018-05-10T04:58:42.317Z,15.41
2018-05-10T05:00:19.008Z,15.53
2018-05-10T05:02:00.430Z,15.58
2018-05-10T05:03:37.073Z,15.63
2018-05-10T05:05:14.089Z,15.52
2018-05-10T05:06:54.798Z,15.61
2018-05-10T05:08:31.422Z,15.71
2018-05-10T05:10:09.625Z,15.61
2018-05-10T05:11:46.815Z,15.44
2018-05-10T05:13:25.034Z,15.41
2018-05-10T05:32:44.257Z,15.36
2018-05-10T05:34:22.874Z,15.28
2018-05-10T05:36:00.210Z,15.35
2018-05-10T05:37:38.826Z,15.43
2018-05-10T05:39:17.985Z,15.42
2018-05-10T05:40:56.944Z,15.54
2018-05-10T05:42:34.028Z,15.62
2018-05-10T05:44:10.965Z,15.78
2018-05-10T05:45:48.412Z,15.83
2018-05-10T05:47:26.394Z,15.88
2018-05-10T05:49:02.780Z,15.86
2018-05-10T05:50:40.262Z,15.89
2018-05-10T05:52:20.525Z,15.95
2018-05-10T05:53:58.058Z,16.04
2018-05-10T05:55:34.950Z,16.12
2018-05-10T05:57:12.617Z,16.13
2018-05-10T05:58:52.056Z,16.16
2018-05-10T06:00:27.796Z,16.19
2018-05-10T06:20:05.353Z,16.89
2018-05-10T06:21:47.091Z,17.01
2018-05-10T06:23:25.721Z,17.02
2018-05-10T06:25:06.717Z,17.19
2018-05-10T06:26:45.899Z,17.24
2018-05-10T06:28:24.030Z,17.36
2018-05-10T06:31:50.543Z,17.51
2018-05-10T06:54:26.961Z,18.08
2018-05-10T06:56:07.528Z,18.14
2018-05-10T06:57:45.397Z,18.19
2018-05-10T06:59:22.154Z,18.24
2018-05-10T07:00:58.963Z,18.30
2018-05-10T07:02:39.756Z,18.39
2018-05-10T07:04:16.810Z,18.43
2018-05-10T07:05:55.390Z,18.49
2018-05-10T07:07:34.904Z,18.55
2018-05-10T07:09:15.731Z,18.62
2018-05-10T07:10:52.384Z,18.74
2018-05-10T07:12:32.456Z,18.84
2018-05-10T07:14:09.746Z,18.99
2018-05-10T07:15:49.173Z,19.00
2018-05-10T07:17:27.458Z,19.04
2018-05-10T07:19:06.014Z,19.13
2018-05-10T07:20:45.608Z,19.19
2018-05-10T07:22:22.895Z,19.26
2018-05-10T07:24:00.142Z,19.30
2018-05-10T07:27:19.518Z,19.49
2018-05-10T07:28:59.783Z,19.55
2018-05-10T07:30:36.376Z,19.64
2018-05-10T07:32:12.543Z,19.69
2018-05-10T07:33:51.588Z,19.74
2018-05-10T07:35:46.729Z,19.74
2018-05-10T07:37:27.169Z,19.81
2018-05-10T07:39:05.896Z,19.87
2018-05-10T07:40:43.942Z,19.90
2018-05-10T07:42:21.566Z,19.96
2018-05-10T07:43:59.683Z,19.99
2018-05-10T07:45:37.683Z,20.08
2018-05-10T07:47:15.107Z,20.17
2018-05-10T07:48:53.081Z,20.19
2018-05-10T07:50:31.619Z,20.26
2018-05-10T07:52:08.639Z,20.26
2018-05-10T07:53:45.811Z,20.30
2018-05-10T07:55:22.862Z,20.36
2018-05-10T07:56:58.826Z,20.37
2018-05-10T07:58:36.114Z,20.43
2018-05-10T08:00:12.309Z,20.48
2018-05-10T08:01:48.058Z,20.59
2018-05-10T08:03:26.033Z,20.63
2018-05-10T08:05:03.719Z,20.69
2018-05-10T08:07:02.016Z,20.76
2018-05-10T08:08:51.643Z,20.81
2018-05-10T08:10:33.929Z,20.82
2018-05-10T08:12:12.236Z,20.88
2018-05-10T08:13:49.853Z,20.97
2018-05-10T08:15:27.344Z,21.02
2018-05-10T08:17:05.973Z,21.09
2018-05-10T08:18:47.912Z,21.13
2018-05-10T08:20:28.733Z,21.26
2018-05-10T08:22:09.778Z,21.40
2018-05-10T08:23:51.664Z,21.40
2018-05-10T08:25:30.175Z,21.39
2018-05-10T08:27:07.526Z,21.48
2018-05-10T08:28:44.853Z,21.45
2018-05-10T08:30:23.728Z,21.36
2018-05-10T08:32:02.772Z,21.40
2018-05-10T08:33:44.987Z,21.51
2018-05-10T08:35:22.102Z,21.70
2018-05-10T08:37:01.134Z,21.83
2018-05-10T08:38:37.944Z,21.95
2018-05-10T08:40:14.739Z,22.19
2018-05-10T08:41:55.588Z,22.20
2018-05-10T08:43:34.422Z,22.37
2018-05-10T08:45:14.416Z,22.47
2018-05-10T08:46:51.183Z,22.52
2018-05-10T08:48:28.463Z,22.72
2018-05-10T08:50:05.557Z,22.89
2018-05-10T08:51:43.440Z,22.98
2018-05-10T08:53:20.799Z,22.96
2018-05-10T08:54:58.333Z,22.98
2018-05-10T08:56:36.747Z,23.03
2018-05-10T08:58:15.507Z,23.05
2018-05-10T09:00:01.332Z,23.08
2018-05-10T09:01:39.056Z,23.05
2018-05-10T09:03:17.892Z,23.04
2018-05-10T09:04:56.333Z,23.06
2018-05-10T09:06:33.728Z,23.13
2018-05-10T09:08:11.354Z,23.15
2018-05-10T09:09:48.485Z,23.13
2018-05-10T09:11:26.341Z,23.10
2018-05-10T09:13:03.277Z,23.14
2018-05-10T09:14:43.700Z,23.23
2018-05-10T09:16:21.601Z,23.28
2018-05-10T09:18:02.109Z,23.32
2018-05-10T09:19:39.801Z,23.33
2018-05-10T09:21:18.757Z,23.42
2018-05-10T09:23:00.346Z,23.51
2018-05-10T09:24:37.497Z,23.52
2018-05-10T09:26:17.048Z,23.64
2018-05-10T09:31:18.733Z,23.60
2018-05-10T09:32:59.262Z,23.63
2018-05-10T09:39:04.905Z,23.71
2018-05-10T09:40:47.138Z,23.65
2018-05-10T09:42:31.723Z,23.59
2018-05-10T09:44:14.120Z,23.56
2018-05-10T09:45:55.867Z,23.65
2018-05-10T09:47:39.279Z,23.75
2018-05-10T09:49:36.235Z,23.84
2018-05-10T09:51:14.082Z,23.92
2018-05-10T09:52:49.991Z,23.98
2018-05-10T09:54:25.838Z,24.10
2018-05-10T09:56:00.970Z,24.16
2018-05-10T09:57:36.999Z,24.15
2018-05-10T09:59:12.794Z,24.16
2018-05-10T10:00:52.546Z,24.16
2018-05-10T10:02:28.499Z,24.35
2018-05-10T10:04:03.717Z,24.37
2018-05-10T10:05:38.854Z,24.68
2018-05-10T10:07:14.009Z,24.68
2018-05-10T10:08:49.143Z,24.73
2018-05-10T10:10:25.099Z,24.89
2018-05-10T10:12:00.204Z,24.94
2018-05-10T10:13:36.827Z,25.00
2018-05-10T10:15:12.945Z,24.83
2018-05-10T10:16:49.013Z,25.03
2018-05-10T10:18:24.807Z,25.11
2018-05-10T10:20:00.092Z,25.14
2018-05-10T10:21:49.985Z,25.21
2018-05-10T10:23:25.099Z,25.26
2018-05-10T10:25:00.226Z,25.30
2018-05-10T10:26:35.476Z,25.43
2018-05-10T10:28:10.594Z,25.55
2018-05-10T10:29:45.929Z,25.63
2018-05-10T10:31:22.657Z,25.66
2018-05-10T10:32:57.774Z,25.79
2018-05-10T10:34:33.295Z,25.85
2018-05-10T10:36:08.289Z,26.02
2018-05-10T10:37:43.391Z,26.03
2018-05-10T10:39:18.472Z,25.96
2018-05-10T10:40:55.382Z,25.93
2018-05-10T10:42:31.239Z,26.05
2018-05-10T10:44:07.393Z,26.06
2018-05-10T10:45:43.364Z,26.11
2018-05-10T10:47:19.376Z,26.08
2018-05-10T10:50:48.643Z,26.19
2018-05-10T10:52:23.694Z,26.26
2018-05-10T10:53:59.241Z,26.25
2018-05-10T10:55:39.157Z,26.50
2018-05-10T10:57:15.157Z,26.66
2018-05-10T10:58:52.272Z,26.71
2018-05-10T11:00:30.534Z,26.72
2018-05-10T11:02:06.175Z,26.62
2018-05-10T11:03:42.204Z,26.65
2018-05-10T11:05:21.728Z,26.63
2018-05-10T11:06:57.246Z,26.59
2018-05-10T11:08:32.475Z,26.62
2018-05-10T11:10:10.614Z,26.62
2018-05-10T11:11:46.790Z,26.67
2018-05-10T11:13:22.965Z,26.66
2018-05-10T11:14:58.390Z,26.47
2018-05-10T11:16:33.758Z,26.40
2018-05-10T11:18:11.119Z,26.34
2018-05-10T11:19:46.195Z,26.55
2018-05-10T11:21:21.695Z,26.88
2018-05-10T11:22:57.929Z,26.95
2018-05-10T11:24:33.270Z,26.73
2018-05-10T11:26:08.455Z,26.67
2018-05-10T11:27:46.600Z,26.75
2018-05-10T11:29:21.705Z,26.84
2018-05-10T11:30:57.771Z,26.75
2018-05-10T11:32:33.228Z,26.77
2018-05-10T11:34:09.181Z,26.82
2018-05-10T11:35:44.545Z,26.75
2018-05-10T11:37:20.036Z,26.81
2018-05-10T11:38:55.625Z,26.60
2018-05-10T11:40:31.239Z,26.50
2018-05-10T11:42:07.249Z,26.33
2018-05-10T11:43:42.384Z,26.44
2018-05-10T11:45:18.218Z,26.48
2018-05-10T11:46:53.301Z,26.52
2018-05-10T11:48:29.619Z,26.51
2018-05-10T11:50:04.855Z,26.50
2018-05-10T11:51:40.073Z,26.50
2018-05-10T11:53:15.846Z,26.44
2018-05-10T11:54:52.971Z,26.34
2018-05-10T11:56:28.686Z,26.37
2018-05-10T11:58:03.996Z,26.45
2018-05-10T11:59:40.394Z,26.49
2018-05-10T12:01:15.946Z,26.41
2018-05-10T12:02:52.030Z,26.42
2018-05-10T12:04:31.320Z,26.42
2018-05-10T12:06:10.276Z,26.49
2018-05-10T12:07:54.134Z,26.47
2018-05-10T12:09:30.469Z,26.48
2018-05-10T12:11:05.827Z,26.60
2018-05-10T12:12:40.921Z,26.67
2018-05-10T12:14:16.176Z,26.77
2018-05-10T12:15:51.248Z,26.77
2018-05-10T12:17:26.329Z,26.91
2018-05-10T12:19:03.157Z,26.97
2018-05-10T12:20:38.462Z,26.91
2018-05-10T12:22:13.525Z,26.85
2018-05-10T12:23:50.451Z,26.68
2018-05-10T12:25:28.252Z,26.63
2018-05-10T12:27:03.256Z,26.54
2018-05-10T12:28:38.292Z,26.45
2018-05-10T12:30:14.125Z,26.60
2018-05-10T12:31:49.191Z,26.48
2018-05-10T12:33:24.248Z,26.44
2018-05-10T12:34:59.344Z,26.51
2018-05-10T12:36:34.463Z,26.71
2018-05-10T12:38:10.338Z,26.83
2018-05-10T12:39:45.388Z,27.01
2018-05-10T12:41:20.455Z,27.20
2018-05-10T12:42:57.386Z,27.28
2018-05-10T12:44:32.438Z,27.39
2018-05-10T12:46:07.527Z,27.42
2018-05-10T12:47:42.577Z,27.48
2018-05-10T12:49:18.422Z,27.47
2018-05-10T12:50:53.604Z,27.49
2018-05-10T12:52:28.644Z,27.69
2018-05-10T12:54:03.738Z,27.74
2018-05-10T12:55:38.862Z,27.67
2018-05-10T12:57:14.675Z,27.58
2018-05-10T12:58:49.729Z,27.56
2018-05-10T13:00:24.831Z,27.57
2018-05-10T13:01:59.920Z,27.83
2018-05-10T13:03:34.962Z,27.89
2018-05-10T13:05:10.009Z,27.85
2018-05-10T13:06:45.109Z,27.95
2018-05-10T13:08:20.213Z,27.73
2018-05-10T13:09:55.493Z,27.51
2018-05-10T13:11:31.331Z,27.50
2018-05-10T13:13:06.433Z,27.20
2018-05-10T13:14:41.575Z,27.26
2018-05-10T13:16:16.733Z,27.14
2018-05-10T13:17:51.826Z,27.06
2018-05-10T13:19:27.898Z,26.99
2018-05-10T13:21:02.908Z,26.94
2018-05-10T13:22:37.970Z,26.74
2018-05-10T13:24:13.073Z,26.82
2018-05-10T13:25:48.142Z,26.70
2018-05-10T13:27:23.294Z,26.57
2018-05-10T13:28:58.312Z,26.62
2018-05-10T13:30:33.438Z,26.56
2018-05-10T13:32:08.476Z,26.63
2018-05-10T13:33:43.557Z,26.55
2018-05-10T13:35:18.660Z,26.56
2018-05-10T13:36:53.872Z,26.54
2018-05-10T13:38:29.044Z,26.48
2018-05-10T13:40:04.425Z,26.16
2018-05-10T13:41:41.255Z,25.81
2018-05-10T13:43:18.725Z,25.84
2018-05-10T13:44:55.123Z,25.79
2018-05-10T13:46:30.693Z,25.60
2018-05-10T13:48:06.152Z,25.55
2018-05-10T13:49:41.878Z,25.45
2018-05-10T13:51:16.956Z,25.39
2018-05-10T13:52:52.878Z,25.56
2018-05-10T13:54:28.710Z,25.64
2018-05-10T13:56:03.763Z,25.61
2018-05-10T13:57:39.136Z,25.61
2018-05-10T13:59:15.192Z,25.52
2018-05-10T14:00:51.184Z,25.68
2018-05-10T14:02:26.415Z,25.78
2018-05-10T14:04:01.477Z,25.93
2018-05-10T14:05:36.574Z,25.99
2018-05-10T14:07:11.657Z,26.14
2018-05-10T14:08:46.697Z,26.09
2018-05-10T14:10:21.974Z,25.93
2018-05-10T14:11:57.067Z,25.85
2018-05-10T14:13:32.898Z,25.35
2018-05-10T14:15:07.985Z,25.47
2018-05-10T14:16:43.891Z,25.71
2018-05-10T14:18:18.976Z,25.63
2018-05-10T14:19:54.089Z,25.60
2018-05-10T14:21:29.180Z,25.37
2018-05-10T14:23:04.239Z,25.46
2018-05-10T14:24:39.451Z,25.60
2018-05-10T14:26:15.081Z,25.54
2018-05-10T14:27:50.379Z,25.14
2018-05-10T14:29:25.594Z,25.22
2018-05-10T14:31:00.661Z,25.37
2018-05-10T14:32:35.776Z,25.23
2018-05-10T14:34:11.662Z,25.15
2018-05-10T14:35:46.726Z,25.05
2018-05-10T14:37:21.814Z,25.04
2018-05-10T14:38:57.429Z,24.91
2018-05-10T14:40:32.536Z,24.81
2018-05-10T14:42:07.593Z,25.02
2018-05-10T14:43:43.454Z,25.13
2018-05-10T14:45:18.532Z,25.21
2018-05-10T14:46:53.694Z,24.98
2018-05-10T14:48:28.759Z,24.84
2018-05-10T14:50:03.822Z,25.12
2018-05-10T14:51:38.920Z,25.14
2018-05-10T14:53:14.329Z,25.00
2018-05-10T14:54:49.412Z,24.92
2018-05-10T14:56:24.515Z,24.73
2018-05-10T14:57:59.951Z,24.61
2018-05-10T14:59:35.822Z,24.56
2018-05-10T15:01:11.841Z,24.68
2018-05-10T15:02:47.311Z,24.83
2018-05-10T15:04:23.168Z,25.08
2018-05-10T15:05:58.257Z,24.91
2018-05-10T15:07:33.321Z,24.92
2018-05-10T15:09:08.444Z,24.98
2018-05-10T15:10:43.512Z,24.96
2018-05-10T15:12:18.615Z,25.14
2018-05-10T15:13:53.831Z,25.07
2018-05-10T15:15:28.881Z,25.09
2018-05-10T15:17:03.931Z,24.69
2018-05-10T15:18:39.020Z,24.33
2018-05-10T15:20:14.067Z,24.13
2018-05-10T15:21:49.122Z,24.34
2018-05-10T15:23:24.223Z,24.29
2018-05-10T15:24:59.284Z,24.48
2018-05-10T15:26:34.420Z,24.41
2018-05-10T15:28:09.490Z,24.35
2018-05-10T15:29:44.611Z,24.24
2018-05-10T15:31:19.735Z,24.31
2018-05-10T15:32:56.045Z,24.50
2018-05-10T15:34:31.105Z,24.74
2018-05-10T15:36:06.206Z,25.05
2018-05-10T15:37:41.248Z,25.00
2018-05-10T15:39:18.267Z,24.96
2018-05-10T15:40:53.320Z,24.88
2018-05-10T15:42:28.958Z,24.82
2018-05-10T15:44:04.024Z,24.84
2018-05-10T15:45:39.219Z,24.78
2018-05-10T15:47:14.304Z,24.61
2018-05-10T15:48:49.405Z,24.50
2018-05-10T15:50:24.473Z,24.61
2018-05-10T15:51:59.527Z,24.66
2018-05-10T15:53:34.597Z,24.78
2018-05-10T15:55:10.126Z,24.77
2018-05-10T15:56:45.246Z,24.95
2018-05-10T15:58:20.301Z,25.10
2018-05-10T15:59:55.711Z,25.13
2018-05-10T16:01:30.832Z,25.23
2018-05-10T16:03:05.881Z,25.23
2018-05-10T16:04:40.933Z,25.20
2018-05-10T16:06:16.243Z,25.30
2018-05-10T16:07:51.371Z,25.37
2018-05-10T16:09:26.450Z,25.33
2018-05-10T16:11:01.513Z,25.30
2018-05-10T16:12:36.699Z,25.05
2018-05-10T16:14:11.795Z,24.80
2018-05-10T16:15:46.856Z,24.43
2018-05-10T16:17:21.904Z,24.32
2018-05-10T16:18:57.052Z,24.19
2018-05-10T16:20:32.125Z,23.80
2018-05-10T16:22:08.233Z,23.43
2018-05-10T16:23:44.843Z,23.31
2018-05-10T16:25:19.908Z,23.28
2018-05-10T16:26:55.046Z,23.37
2018-05-10T16:28:30.100Z,23.48
2018-05-10T16:30:05.959Z,23.34
2018-05-10T16:31:41.038Z,23.36
2018-05-10T16:33:16.115Z,23.18
2018-05-10T16:34:51.308Z,23.09
2018-05-10T16:36:27.433Z,23.18
2018-05-10T16:38:02.584Z,23.11
2018-05-10T16:39:37.640Z,22.93
2018-05-10T16:41:12.743Z,22.94
2018-05-10T16:42:47.816Z,22.72
2018-05-10T16:44:22.909Z,22.74
2018-05-10T16:45:58.001Z,22.82
2018-05-10T16:47:33.051Z,22.71
2018-05-10T16:49:08.159Z,22.73
2018-05-10T16:50:43.216Z,22.85
2018-05-10T16:52:19.039Z,22.87
2018-05-10T16:53:54.096Z,22.99
2018-05-10T16:55:29.199Z,23.05
2018-05-10T16:57:04.245Z,23.00
2018-05-10T16:58:39.310Z,22.87
2018-05-10T17:00:14.404Z,23.03
2018-05-10T17:01:49.484Z,22.90
2018-05-10T17:03:24.540Z,23.00
2018-05-10T17:04:59.664Z,22.90
2018-05-10T17:06:35.485Z,22.73
2018-05-10T17:08:10.537Z,22.58
2018-05-10T17:09:46.383Z,22.57
2018-05-10T17:11:21.476Z,22.49
2018-05-10T17:12:56.524Z,22.37
2018-05-10T17:14:31.613Z,22.17
2018-05-10T17:16:10.110Z,22.16
2018-05-10T17:17:45.179Z,22.26
2018-05-10T17:19:20.240Z,22.29
2018-05-10T17:20:55.365Z,22.24
2018-05-10T17:22:30.542Z,22.01
2018-05-10T17:24:05.902Z,21.62
2018-05-10T17:25:41.176Z,21.32
2018-05-10T17:27:16.295Z,21.34
2018-05-10T17:28:51.489Z,21.53
2018-05-10T17:30:26.570Z,21.52
2018-05-10T17:32:01.854Z,21.62
2018-05-10T17:33:37.214Z,21.28
2018-05-10T17:35:12.324Z,21.30
2018-05-10T17:36:47.981Z,21.33
2018-05-10T17:38:25.199Z,21.49
2018-05-10T17:40:00.264Z,21.40
2018-05-10T17:41:35.534Z,21.48
2018-05-10T17:43:10.612Z,21.34
2018-05-10T17:44:45.692Z,21.36
2018-05-10T17:46:20.744Z,21.30
2018-05-10T17:47:55.830Z,21.30
2018-05-10T17:49:30.891Z,21.13
2018-05-10T17:51:06.771Z,20.97
2018-05-10T17:52:41.862Z,20.88
2018-05-10T17:54:16.922Z,20.72
2018-05-10T17:55:52.004Z,20.51
2018-05-10T17:57:27.084Z,20.36
2018-05-10T17:59:02.134Z,20.35
2018-05-10T18:00:37.228Z,20.31
2018-05-10T18:02:12.322Z,20.32
2018-05-10T18:03:47.406Z,20.19
2018-05-10T18:05:23.254Z,20.01
2018-05-10T18:06:58.321Z,20.09
2018-05-10T18:08:33.561Z,20.14
2018-05-10T18:10:14.662Z,20.00
2018-05-10T18:11:51.041Z,19.81
2018-05-10T18:13:26.140Z,19.84
2018-05-10T18:15:01.592Z,19.96
2018-05-10T18:16:37.210Z,19.83
2018-05-10T18:18:13.349Z,19.87
2018-05-10T18:19:49.914Z,19.87
2018-05-10T18:21:26.139Z,19.86
2018-05-10T18:23:01.748Z,19.86
2018-05-10T18:24:36.817Z,19.76
2018-05-10T18:26:12.567Z,19.76
2018-05-10T18:27:50.430Z,19.83
2018-05-10T18:29:27.253Z,19.70
2018-05-10T18:31:02.380Z,19.70
2018-05-10T18:32:37.525Z,19.53
2018-05-10T18:34:14.934Z,19.30
2018-05-10T18:35:50.342Z,19.31
2018-05-10T18:37:25.417Z,19.28
2018-05-10T18:39:00.488Z,19.29
2018-05-10T18:40:35.555Z,19.35
2018-05-10T18:42:10.699Z,19.35
2018-05-10T18:43:45.767Z,19.35
2018-05-10T18:45:21.590Z,19.34
2018-05-10T18:46:56.646Z,19.20
2018-05-10T18:48:31.762Z,19.07
2018-05-10T18:50:08.462Z,19.11
2018-05-10T18:51:46.415Z,19.17
2018-05-10T18:53:22.157Z,19.27
2018-05-10T18:54:58.964Z,19.20
2018-05-10T18:56:34.900Z,19.35
2018-05-10T18:58:11.293Z,19.37
2018-05-10T18:59:46.401Z,19.37
2018-05-10T19:01:21.474Z,19.19
2018-05-10T19:02:56.538Z,19.03
2018-05-10T19:04:31.600Z,18.92
2018-05-10T19:06:06.692Z,19.00
2018-05-10T19:07:41.754Z,19.01
2018-05-10T19:09:17.620Z,18.99
2018-05-10T19:10:52.684Z,19.10
2018-05-10T19:12:27.795Z,19.11
2018-05-10T19:14:05.793Z,18.94
2018-05-10T19:15:41.418Z,19.01
2018-05-10T19:17:17.489Z,19.09
2018-05-10T19:18:52.535Z,19.06
2018-05-10T19:20:27.714Z,19.09
2018-05-10T19:22:02.962Z,19.14
2018-05-10T19:23:39.938Z,19.25
2018-05-10T19:25:15.811Z,19.22
2018-05-10T19:26:51.073Z,19.15
2018-05-10T19:28:26.151Z,19.30
2018-05-10T19:30:01.303Z,18.98
2018-05-10T19:31:36.617Z,19.00
2018-05-10T19:33:12.574Z,18.95
2018-05-10T19:34:48.808Z,18.86
2018-05-10T19:36:23.956Z,18.89
2018-05-10T19:37:59.637Z,18.72
2018-05-10T19:39:34.970Z,18.56
2018-05-10T19:41:10.729Z,18.59
2018-05-10T19:42:45.820Z,18.56
2018-05-10T19:44:21.760Z,18.49
2018-05-10T19:45:56.870Z,18.48
2018-05-10T19:47:38.786Z,18.47
2018-05-10T19:49:13.865Z,18.45
2018-05-10T19:50:49.684Z,18.57
2018-05-10T19:52:24.849Z,18.56
2018-05-10T19:53:59.902Z,18.67
2018-05-10T19:55:38.232Z,18.77
2018-05-10T19:57:14.137Z,18.81
2018-05-10T19:58:49.946Z,18.86
2018-05-10T20:00:25.157Z,18.89
2018-05-10T20:02:00.633Z,18.92
2018-05-10T20:03:35.788Z,18.59
2018-05-10T20:05:10.910Z,18.61
2018-05-10T20:06:46.345Z,18.61
2018-05-10T20:08:21.537Z,18.70
2018-05-10T20:09:57.424Z,18.55
2018-05-10T20:11:32.552Z,18.55
2018-05-10T20:13:09.675Z,18.67
2018-05-10T20:14:44.764Z,18.81
2018-05-10T20:16:19.940Z,18.85
2018-05-10T20:17:55.237Z,18.75
2018-05-10T20:19:30.340Z,18.83
2018-05-10T20:21:05.441Z,18.92
2018-05-10T20:22:40.591Z,19.04
2018-05-10T20:24:16.533Z,19.00
2018-05-10T20:25:52.337Z,18.85
2018-05-10T20:27:27.441Z,18.93
2018-05-10T20:29:02.573Z,18.83
2018-05-10T20:30:38.403Z,18.70
2018-05-10T20:32:13.658Z,18.46
2018-05-10T20:33:49.582Z,18.50
2018-05-10T20:35:25.852Z,18.49
2018-05-10T20:37:01.657Z,18.62
2018-05-10T20:38:37.634Z,18.64
2018-05-10T20:40:13.605Z,18.56
2018-05-10T20:41:48.759Z,18.56
2018-05-10T20:43:23.879Z,18.35
2018-05-10T20:44:59.426Z,18.36
2018-05-10T20:46:34.525Z,18.29
2018-05-10T20:48:12.891Z,18.26
2018-05-10T20:49:49.046Z,18.25
2018-05-10T20:51:24.173Z,18.26
2018-05-10T20:53:00.136Z,18.29
2018-05-10T20:54:35.210Z,18.24
2018-05-10T20:56:10.370Z,18.25
2018-05-10T20:57:47.280Z,18.29
2018-05-10T20:59:22.455Z,18.36
2018-05-10T21:00:57.550Z,18.36
2018-05-10T21:02:32.664Z,18.34
2018-05-10T21:04:08.529Z,18.34
2018-05-10T21:05:43.653Z,18.31
2018-05-10T21:07:18.811Z,18.36
2018-05-10T21:08:53.972Z,18.34
2018-05-10T21:10:29.633Z,18.23
2018-05-10T21:12:04.778Z,18.20
2018-05-10T21:13:39.904Z,18.27
2018-05-10T21:15:14.982Z,18.32
2018-05-10T21:16:50.069Z,18.46
2018-05-10T21:18:25.243Z,18.30
2018-05-10T21:20:00.382Z,18.18
2018-05-10T21:21:35.507Z,18.20
2018-05-10T21:23:11.282Z,18.16
2018-05-10T21:24:46.385Z,18.13
2018-05-10T21:26:21.469Z,18.15
2018-05-10T21:27:56.615Z,18.21
2018-05-10T21:29:37.351Z,18.12
2018-05-10T21:31:18.435Z,17.98
2018-05-10T21:32:54.426Z,17.91
2018-05-10T21:34:30.268Z,17.99
2018-05-10T21:36:05.455Z,17.88
2018-05-10T21:37:40.557Z,17.88
2018-05-10T21:39:15.688Z,17.85
2018-05-10T21:40:50.782Z,17.69
2018-05-10T21:42:25.895Z,17.73
2018-05-10T21:44:01.076Z,17.60
2018-05-10T21:45:36.223Z,17.73
2018-05-10T21:47:11.898Z,17.71
2018-05-10T21:48:47.060Z,17.82
2018-05-10T21:50:28.826Z,17.66
2018-05-10T21:52:03.927Z,17.57
2018-05-10T21:53:39.800Z,17.54
2018-05-10T21:55:16.156Z,17.36
2018-05-10T21:56:51.286Z,17.45
2018-05-10T21:58:26.468Z,17.52
2018-05-10T22:00:01.566Z,17.47
2018-05-10T22:01:36.663Z,17.42
2018-05-10T22:03:11.775Z,17.62
2018-05-10T22:04:46.905Z,17.67
2018-05-10T22:06:22.060Z,17.61
2018-05-10T22:07:57.149Z,17.53
2018-05-10T22:09:32.252Z,17.51
2018-05-10T22:11:07.349Z,17.63
2018-05-10T22:12:42.543Z,17.56
2018-05-10T22:14:18.870Z,17.54
2018-05-10T22:15:55.918Z,17.55
2018-05-10T22:17:31.076Z,17.49
2018-05-10T22:19:06.846Z,17.47
2018-05-10T22:20:42.724Z,17.47
2018-05-10T22:22:17.877Z,17.41
2018-05-10T22:23:53.777Z,17.48
2018-05-10T22:25:29.781Z,17.41
2018-05-10T22:27:05.643Z,17.32
2018-05-10T22:28:41.570Z,17.33
2018-05-10T22:30:16.695Z,17.30
2018-05-10T22:31:51.833Z,17.35
2018-05-10T22:33:26.991Z,17.24
2018-05-10T22:35:02.170Z,17.35
2018-05-10T22:36:37.170Z,17.31
2018-05-10T22:38:12.238Z,17.26
2018-05-10T22:39:47.371Z,17.17
2018-05-10T22:41:22.443Z,17.08
2018-05-10T22:42:57.508Z,17.11
2018-05-10T22:44:32.611Z,17.28
2018-05-10T22:46:07.717Z,17.05
2018-05-10T22:47:42.832Z,17.15
2018-05-10T22:49:17.948Z,17.21
2018-05-10T22:50:53.038Z,17.16
2018-05-10T22:52:28.161Z,16.97
2018-05-10T22:54:03.269Z,17.05
2018-05-10T22:55:38.369Z,16.95
2018-05-10T22:57:13.475Z,16.97
2018-05-10T22:58:48.554Z,16.94
2018-05-10T23:00:24.411Z,17.12
2018-05-10T23:01:59.524Z,17.13
2018-05-10T23:03:34.573Z,16.99
2018-05-10T23:05:09.701Z,16.97
2018-05-10T23:06:44.811Z,17.00
2018-05-10T23:08:20.655Z,17.01
2018-05-10T23:09:55.808Z,16.81
2018-05-10T23:11:30.879Z,16.76
2018-05-10T23:13:05.942Z,16.78
2018-05-10T23:14:41.174Z,16.69
2018-05-10T23:16:17.037Z,16.80
2018-05-10T23:17:52.131Z,16.77
2018-05-10T23:19:27.994Z,16.90
2018-05-10T23:21:03.106Z,16.98
2018-05-10T23:22:38.201Z,16.88
2018-05-10T23:24:13.305Z,16.73
2018-05-10T23:25:48.414Z,16.76
2018-05-10T23:27:23.491Z,16.69
2018-05-10T23:28:58.589Z,16.77
2018-05-10T23:30:33.650Z,16.69
2018-05-10T23:32:08.754Z,16.65
2018-05-10T23:33:44.803Z,16.65
2018-05-10T23:35:19.922Z,16.65
2018-05-10T23:36:55.829Z,16.75
2018-05-10T23:38:31.008Z,16.89
2018-05-10T23:40:06.140Z,16.85